Time;durP1;ratioP1;P1;durP2;ratioP2;P2;SDS_P1;SDS_P2;PMS_P1;PMS_P2;Temp;Humidity;BMP_temperature;BMP_pressure;BME280_temperature;BME280_humidity;BME280_pressure;Samples;Min_cycle;Max_cycle;Signal;HPM_P1;HPM_P2
2022/11/19 00:00:41;;;;;;;33.70;16.48;;;7.70;99.90;;;;;;4977736;28;20050;-69
2022/11/19 00:03:07;;;;;;;29.67;16.17;;;7.70;99.90;;;;;;4983270;28;20048;-69
2022/11/19 00:05:40;;;;;;;31.33;16.02;;;7.70;99.90;;;;;;4981059;28;20030;-70
2022/11/19 00:08:06;;;;;;;28.90;15.45;;;7.60;99.90;;;;;;4980304;28;20045;-72
2022/11/19 00:10:36;;;;;;;28.65;14.65;;;7.60;99.90;;;;;;4990177;28;20031;-69
2022/11/19 00:13:03;;;;;;;25.05;14.35;;;7.60;99.90;;;;;;4973197;28;20069;-69
2022/11/19 00:15:29;;;;;;;30.83;14.63;;;7.50;99.90;;;;;;4979203;28;20483;-69
2022/11/19 00:17:57;;;;;;;28.92;14.27;;;7.40;99.90;;;;;;4990217;28;20018;-69
2022/11/19 00:20:22;;;;;;;25.20;14.13;;;7.30;99.90;;;;;;4989754;28;20023;-69
2022/11/19 00:22:52;;;;;;;27.23;14.32;;;7.30;99.90;;;;;;4984927;28;20027;-69
2022/11/19 00:25:19;;;;;;;27.35;14.88;;;7.30;99.90;;;;;;4981884;28;20352;-70
2022/11/19 00:27:45;;;;;;;29.00;15.38;;;7.30;99.90;;;;;;4989247;28;20418;-69
2022/11/19 00:30:11;;;;;;;27.67;15.48;;;7.30;99.90;;;;;;4989709;28;20026;-69
2022/11/19 00:32:37;;;;;;;28.25;14.77;;;7.30;99.90;;;;;;4987695;28;20114;-69
2022/11/19 00:35:03;;;;;;;30.60;15.35;;;7.20;99.90;;;;;;4977415;28;20098;-69
2022/11/19 00:37:29;;;;;;;29.48;16.10;;;7.30;99.90;;;;;;4988948;28;20080;-69
2022/11/19 00:39:55;;;;;;;32.08;16.35;;;7.30;99.90;;;;;;4989714;28;20487;-69
2022/11/19 00:42:21;;;;;;;29.55;15.70;;;7.20;99.90;;;;;;4990099;28;20027;-69
2022/11/19 00:44:46;;;;;;;27.90;15.77;;;7.20;99.90;;;;;;4987597;28;20046;-69
2022/11/19 00:47:12;;;;;;;29.02;15.55;;;7.20;99.90;;;;;;4989724;28;20098;-69
2022/11/19 00:49:37;;;;;;;32.08;16.77;;;7.20;99.90;;;;;;4988809;28;20437;-69
2022/11/19 00:52:03;;;;;;;27.73;15.30;;;7.20;99.90;;;;;;4990111;28;20026;-69
2022/11/19 00:54:29;;;;;;;28.02;15.00;;;7.30;99.90;;;;;;4988181;28;20065;-69
2022/11/19 00:56:54;;;;;;;27.92;15.10;;;7.20;99.90;;;;;;4981291;28;20023;-71
2022/11/19 00:59:20;;;;;;;25.88;14.43;;;7.20;99.90;;;;;;4981600;28;20606;-70
2022/11/19 01:01:45;;;;;;;28.65;16.00;;;7.20;99.90;;;;;;4993635;28;20049;-69
2022/11/19 01:04:11;;;;;;;25.63;14.63;;;7.10;99.90;;;;;;4979536;28;20118;-69
2022/11/19 01:06:37;;;;;;;27.48;14.52;;;7.10;99.90;;;;;;4992370;28;20014;-69
2022/11/19 01:09:03;;;;;;;26.15;15.02;;;7.10;99.90;;;;;;4993146;28;20026;-70
2022/11/19 01:11:32;;;;;;;24.17;14.13;;;7.10;99.90;;;;;;4992601;28;20106;-70
2022/11/19 01:13:58;;;;;;;23.45;13.63;;;7.00;99.90;;;;;;4993351;28;20022;-69
2022/11/19 01:16:30;;;;;;;24.67;13.93;;;7.00;99.90;;;;;;4992901;28;20018;-69
2022/11/19 01:18:56;;;;;;;25.67;13.95;;;7.00;99.90;;;;;;4992152;28;20029;-71
2022/11/19 01:21:25;;;;;;;23.80;13.65;;;7.00;99.90;;;;;;4987728;28;20027;-69
2022/11/19 01:23:51;;;;;;;26.02;14.40;;;7.00;99.90;;;;;;4986139;28;20478;-69
2022/11/19 01:26:17;;;;;;;24.10;13.95;;;7.00;99.90;;;;;;4991711;28;20076;-70
2022/11/19 01:28:44;;;;;;;25.95;13.77;;;6.90;99.90;;;;;;4992754;28;20023;-69
2022/11/19 01:31:12;;;;;;;24.20;13.70;;;6.90;99.90;;;;;;4991706;28;20037;-69
2022/11/19 01:33:38;;;;;;;26.63;15.05;;;6.90;99.90;;;;;;4990856;28;23097;-70
2022/11/19 01:36:07;;;;;;;26.95;15.25;;;6.90;99.90;;;;;;4992480;28;20109;-70
2022/11/19 01:38:33;;;;;;;28.50;14.95;;;6.90;99.90;;;;;;4992581;28;20514;-70
2022/11/19 01:40:59;;;;;;;28.90;15.25;;;6.80;99.90;;;;;;4978253;28;20033;-71
2022/11/19 01:43:43;;;;;;;26.58;15.38;;;6.80;99.90;;;;;;4992913;28;20100;-73
2022/11/19 01:46:15;;;;;;;31.40;16.15;;;6.80;99.90;;;;;;4972591;28;20383;-69
2022/11/19 01:48:55;;;;;;;30.08;16.10;;;6.80;99.90;;;;;;4986293;28;20031;-70
2022/11/19 01:51:44;;;;;;;32.75;17.77;;;6.80;99.90;;;;;;4982328;28;20018;-70
2022/11/19 01:54:29;;;;;;;31.02;17.77;;;6.70;99.90;;;;;;4990364;28;20052;-70
2022/11/19 01:56:59;;;;;;;32.75;18.40;;;6.70;99.90;;;;;;4992303;28;20085;-71
2022/11/19 01:59:26;;;;;;;35.50;18.85;;;6.60;99.90;;;;;;4991686;28;20100;-70
2022/11/19 02:01:51;;;;;;;38.38;20.15;;;6.60;99.90;;;;;;4992740;28;20102;-69
2022/11/19 02:04:19;;;;;;;40.13;21.25;;;6.60;99.90;;;;;;4977888;28;20117;-71
2022/11/19 02:06:45;;;;;;;40.85;20.10;;;6.50;99.90;;;;;;4982444;28;20105;-70
2022/11/19 02:09:10;;;;;;;39.13;19.90;;;6.40;99.90;;;;;;4987482;28;20110;-69
2022/11/19 02:12:07;;;;;;;39.83;21.10;;;6.40;99.90;;;;;;4991366;28;20029;-70
2022/11/19 02:14:35;;;;;;;42.33;21.10;;;6.40;99.90;;;;;;4991135;28;20030;-69
2022/11/19 02:17:19;;;;;;;43.80;22.65;;;6.30;99.90;;;;;;4991947;28;20505;-70
2022/11/19 02:20:25;;;;;;;40.55;21.52;;;6.30;99.90;;;;;;4985437;28;20019;-70
2022/11/19 02:23:09;;;;;;;;;;;6.20;99.90;;;;;;4990699;28;20033;-70
2022/11/19 02:25:47;;;;;;;39.00;22.00;;;6.20;99.90;;;;;;4989692;28;19914;-70
2022/11/19 02:28:37;;;;;;;46.17;23.25;;;6.20;99.90;;;;;;4989195;28;20026;-70
2022/11/19 02:31:53;;;;;;;43.55;23.17;;;6.20;99.90;;;;;;4991210;28;20033;-69
2022/11/19 02:34:23;;;;;;;41.20;22.02;;;6.10;99.90;;;;;;4952276;28;20050;-69
2022/11/19 02:37:07;;;;;;;44.63;23.10;;;6.10;99.90;;;;;;4991842;28;20117;-69
2022/11/19 02:39:41;;;;;;;45.08;22.77;;;6.10;99.90;;;;;;4978160;28;20029;-70
2022/11/19 02:42:17;;;;;;;44.75;22.38;;;6.10;99.90;;;;;;4991315;28;20425;-69
2022/11/19 02:45:01;;;;;;;41.33;22.08;;;6.10;99.90;;;;;;4971853;28;20043;-69
2022/11/19 02:47:50;;;;;;;44.45;22.80;;;6.10;99.90;;;;;;4987654;28;20028;-70
2022/11/19 02:50:20;;;;;;;45.00;21.17;;;6.10;99.90;;;;;;4979868;28;20041;-69
2022/11/19 02:52:46;;;;;;;47.92;22.20;;;6.10;99.90;;;;;;4974992;28;20026;-70
2022/11/19 02:55:14;;;;;;;47.95;22.83;;;6.10;99.90;;;;;;4989217;28;20030;-70
2022/11/19 02:57:43;;;;;;;44.33;22.10;;;6.10;99.90;;;;;;4990883;28;20041;-70
2022/11/19 03:05:52;;;;;;;50.50;22.92;;;6.10;99.90;;;;;;4990255;28;20081;-69
2022/11/19 03:08:18;;;;;;;44.53;22.02;;;6.10;99.90;;;;;;4990431;28;20077;-70
2022/11/19 03:10:46;;;;;;;43.72;22.33;;;6.10;99.90;;;;;;4990705;28;20443;-68
2022/11/19 03:19:06;;;;;;;45.90;23.48;;;6.00;99.90;;;;;;4990361;28;20112;-70
2022/11/19 03:21:38;;;;;;;47.55;23.42;;;5.90;99.90;;;;;;4991230;28;20022;-70
2022/11/19 03:24:09;;;;;;;53.88;23.98;;;5.90;99.90;;;;;;4989713;28;20028;-70
2022/11/19 03:26:50;;;;;;;50.47;23.50;;;5.80;99.90;;;;;;4978400;28;20031;-69
2022/11/19 03:29:17;;;;;;;49.38;24.52;;;5.80;99.90;;;;;;4977624;28;20030;-70
2022/11/19 03:31:50;;;;;;;51.15;23.33;;;5.80;99.90;;;;;;4990701;28;20339;-69
2022/11/19 03:34:19;;;;;;;53.17;24.30;;;5.80;99.90;;;;;;4990039;28;20033;-69
2022/11/19 03:36:48;;;;;;;55.28;24.95;;;5.80;99.90;;;;;;4989190;28;20030;-70
2022/11/19 03:39:16;;;;;;;49.25;24.23;;;5.80;99.90;;;;;;4990767;28;20022;-70
2022/11/19 03:41:45;;;;;;;46.22;23.42;;;5.80;99.90;;;;;;4989302;28;20311;-70
2022/11/19 03:44:23;;;;;;;50.78;23.98;;;5.80;99.90;;;;;;4989679;28;20046;-70
2022/11/19 03:47:01;;;;;;;50.38;24.02;;;5.70;99.90;;;;;;4989627;28;20088;-70
2022/11/19 03:49:32;;;;;;;50.40;25.13;;;5.70;99.90;;;;;;4990180;28;20030;-69
2022/11/19 03:52:15;;;;;;;47.55;25.10;;;5.70;99.90;;;;;;4989792;28;20485;-69
2022/11/19 03:54:41;;;;;;;52.47;26.42;;;5.70;99.90;;;;;;4986537;28;20030;-70
2022/11/19 03:57:10;;;;;;;47.47;25.25;;;5.70;99.90;;;;;;4972486;28;20027;-69
2022/11/19 03:59:35;;;;;;;47.55;25.40;;;5.60;99.90;;;;;;4990345;28;20398;-70
2022/11/19 04:02:05;;;;;;;48.28;25.27;;;5.60;99.90;;;;;;4989397;28;20026;-69
2022/11/19 04:04:36;;;;;;;47.92;25.67;;;5.60;99.90;;;;;;4989779;28;20035;-70
2022/11/19 04:07:18;;;;;;;46.30;24.65;;;5.50;99.90;;;;;;4990510;28;20038;-70
2022/11/19 04:09:44;;;;;;;51.03;26.38;;;5.50;99.90;;;;;;4989057;28;20411;-70
2022/11/19 04:12:23;;;;;;;46.03;25.88;;;5.50;99.90;;;;;;4989497;28;20057;-71
2022/11/19 04:14:50;;;;;;;46.00;24.48;;;5.50;99.90;;;;;;4975858;28;20030;-69
2022/11/19 04:17:17;;;;;;;45.83;25.20;;;5.50;99.90;;;;;;4987930;28;20026;-70
2022/11/19 04:19:43;;;;;;;44.53;24.20;;;5.40;99.90;;;;;;4990291;28;20080;-71
2022/11/19 04:22:09;;;;;;;45.05;24.95;;;5.40;99.90;;;;;;4976483;28;20015;-70
2022/11/19 04:24:35;;;;;;;44.67;25.02;;;5.40;99.90;;;;;;4977921;28;20094;-69
2022/11/19 04:27:00;;;;;;;44.65;25.15;;;5.40;99.90;;;;;;4983235;28;20455;-70
2022/11/19 04:29:26;;;;;;;47.42;25.13;;;5.40;99.90;;;;;;4970536;28;20078;-69
2022/11/19 04:31:51;;;;;;;43.45;25.20;;;5.40;99.90;;;;;;4986132;28;20022;-70
2022/11/19 04:34:17;;;;;;;47.35;26.27;;;5.40;99.90;;;;;;4993964;28;20379;-70
2022/11/19 04:36:43;;;;;;;46.20;25.98;;;5.40;99.90;;;;;;4993493;28;20033;-70
2022/11/19 04:39:11;;;;;;;46.95;25.55;;;5.40;99.90;;;;;;4992956;28;20046;-70
2022/11/19 04:41:37;;;;;;;50.63;27.92;;;5.40;99.90;;;;;;4993862;28;20023;-70
2022/11/19 04:44:02;;;;;;;48.63;26.38;;;5.40;99.90;;;;;;4992758;28;20054;-69
2022/11/19 04:46:28;;;;;;;49.17;27.42;;;5.40;99.90;;;;;;4993197;28;20030;-70
2022/11/19 04:48:53;;;;;;;48.97;26.88;;;5.40;99.90;;;;;;4978679;28;20019;-69
2022/11/19 04:51:19;;;;;;;51.05;27.33;;;5.40;99.90;;;;;;4993474;28;20026;-70
2022/11/19 04:53:44;;;;;;;49.97;26.23;;;5.40;99.90;;;;;;4992718;28;20019;-70
2022/11/19 04:56:10;;;;;;;53.20;26.98;;;5.30;99.90;;;;;;4993513;28;20084;-70
2022/11/19 04:58:36;;;;;;;51.55;26.85;;;5.20;99.90;;;;;;4991635;28;20030;-69
2022/11/19 05:01:02;;;;;;;50.72;26.80;;;5.20;99.90;;;;;;4992307;28;20025;-70
2022/11/19 05:03:28;;;;;;;52.63;28.15;;;5.10;99.90;;;;;;4986641;28;20023;-70
2022/11/19 05:05:53;;;;;;;56.50;29.02;;;5.10;99.90;;;;;;4992676;28;20034;-70
2022/11/19 05:08:19;;;;;;;57.03;30.42;;;5.10;99.90;;;;;;4992970;28;20026;-70
2022/11/19 05:10:44;;;;;;;58.25;30.35;;;5.00;99.90;;;;;;4992612;28;20074;-69
2022/11/19 05:13:10;;;;;;;57.97;31.08;;;5.00;99.90;;;;;;4978721;28;20103;-70
2022/11/19 05:15:35;;;;;;;63.05;33.10;;;5.00;99.90;;;;;;4993334;28;20092;-69
2022/11/19 05:18:01;;;;;;;59.53;31.55;;;5.00;99.90;;;;;;4992415;28;20097;-70
2022/11/19 05:20:27;;;;;;;60.97;32.53;;;4.90;99.90;;;;;;4978674;28;20058;-69
2022/11/19 05:22:52;;;;;;;61.03;32.97;;;4.90;99.90;;;;;;4992384;28;20085;-70
2022/11/19 05:25:18;;;;;;;57.95;32.05;;;4.90;99.90;;;;;;4992245;28;20088;-70
2022/11/19 05:27:44;;;;;;;56.67;30.95;;;4.90;99.90;;;;;;4993278;28;20041;-69
2022/11/19 05:30:10;;;;;;;62.17;33.08;;;4.90;99.90;;;;;;4991492;28;20029;-70
2022/11/19 05:32:36;;;;;;;66.45;33.38;;;4.90;99.90;;;;;;4993066;28;20061;-69
2022/11/19 05:35:03;;;;;;;59.65;32.28;;;4.80;99.90;;;;;;4991814;28;20050;-71
2022/11/19 05:37:28;;;;;;;65.50;33.70;;;4.80;99.90;;;;;;4978558;28;20030;-68
2022/11/19 05:39:54;;;;;;;64.70;34.33;;;4.80;99.90;;;;;;5004562;28;20022;-71
2022/11/19 05:42:19;;;;;;;64.03;34.17;;;4.80;99.90;;;;;;4989448;28;20026;-70
2022/11/19 05:44:45;;;;;;;65.18;33.92;;;4.70;99.90;;;;;;4992706;28;20091;-70
2022/11/19 05:47:11;;;;;;;67.22;35.15;;;4.70;99.90;;;;;;4988408;28;20026;-70
2022/11/19 05:49:36;;;;;;;59.75;33.55;;;4.70;99.90;;;;;;4980110;28;20471;-70
2022/11/19 05:52:02;;;;;;;62.15;33.22;;;4.70;99.90;;;;;;4993193;28;20367;-69
2022/11/19 05:54:27;;;;;;;64.47;32.92;;;4.80;99.90;;;;;;4978344;28;20108;-70
2022/11/19 05:56:53;;;;;;;62.55;32.78;;;4.70;99.90;;;;;;4981316;28;20383;-69
2022/11/19 05:59:19;;;;;;;58.67;32.88;;;4.60;99.90;;;;;;4974148;28;20023;-69
2022/11/19 06:01:45;;;;;;;59.42;33.40;;;4.60;99.90;;;;;;4992880;28;20022;-70
2022/11/19 06:04:10;;;;;;;60.05;33.17;;;4.60;99.90;;;;;;4991416;28;20023;-71
2022/11/19 06:06:37;;;;;;;56.22;31.60;;;4.60;99.90;;;;;;4977622;28;20394;-69
2022/11/19 06:09:03;;;;;;;55.85;31.75;;;4.50;99.90;;;;;;4991508;28;20085;-70
2022/11/19 06:11:46;;;;;;;56.47;31.20;;;4.50;99.90;;;;;;4990903;28;20530;-70
2022/11/19 06:14:13;;;;;;;53.13;30.88;;;4.50;99.90;;;;;;4992296;28;20463;-69
2022/11/19 06:16:38;;;;;;;56.38;31.58;;;4.40;99.90;;;;;;4989966;28;20101;-71
2022/11/19 06:19:04;;;;;;;55.53;32.00;;;4.40;99.90;;;;;;4980518;28;20014;-70
2022/11/19 06:21:30;;;;;;;54.35;29.95;;;4.40;99.90;;;;;;4991629;28;20434;-70
2022/11/19 06:23:55;;;;;;;52.28;29.42;;;4.30;99.90;;;;;;4991354;28;20027;-70
2022/11/19 06:26:26;;;;;;;54.63;29.88;;;4.20;99.90;;;;;;4981055;28;20446;-70
2022/11/19 06:28:52;;;;;;;57.08;31.30;;;4.20;99.90;;;;;;4990132;28;20442;-71
2022/11/19 06:31:18;;;;;;;50.28;28.02;;;4.20;99.90;;;;;;4991822;28;20023;-71
2022/11/19 06:33:43;;;;;;;54.20;28.67;;;4.10;99.90;;;;;;4990807;28;20030;-70
2022/11/19 06:36:09;;;;;;;51.80;28.42;;;4.10;99.90;;;;;;4977830;28;20033;-72
2022/11/19 06:38:34;;;;;;;54.40;29.80;;;4.00;99.90;;;;;;4991590;28;20514;-70
2022/11/19 06:41:00;;;;;;;53.42;28.98;;;4.00;99.90;;;;;;4978957;28;20118;-70
2022/11/19 06:43:26;;;;;;;52.45;28.92;;;4.00;99.90;;;;;;4990420;28;20063;-69
2022/11/19 06:45:51;;;;;;;52.97;29.58;;;3.90;99.90;;;;;;4981790;28;20035;-71
2022/11/19 06:48:17;;;;;;;52.40;29.38;;;3.90;99.90;;;;;;4987398;28;20161;-71
2022/11/19 06:50:44;;;;;;;56.38;30.65;;;4.00;99.90;;;;;;4985371;28;20026;-71
2022/11/19 06:53:10;;;;;;;53.50;29.08;;;4.00;99.90;;;;;;4975614;28;20027;-69
2022/11/19 06:55:35;;;;;;;54.95;29.83;;;4.10;99.90;;;;;;4988907;28;20037;-71
2022/11/19 06:58:02;;;;;;;55.92;30.13;;;4.00;99.90;;;;;;4991471;28;20466;-72
2022/11/19 07:00:28;;;;;;;51.28;28.80;;;4.00;99.90;;;;;;4979928;28;20018;-73
2022/11/19 07:02:53;;;;;;;53.42;28.75;;;4.00;99.90;;;;;;4984439;28;20226;-72
2022/11/19 07:05:19;;;;;;;53.63;29.13;;;4.00;99.90;;;;;;4978951;28;20026;-72
2022/11/19 07:07:44;;;;;;;52.38;28.20;;;4.00;99.90;;;;;;4990886;28;20467;-72
2022/11/19 07:10:10;;;;;;;52.60;28.80;;;3.90;99.90;;;;;;4989643;28;20026;-71
2022/11/19 07:12:35;;;;;;;52.55;28.02;;;3.90;99.90;;;;;;4990229;28;20049;-72
2022/11/19 07:15:01;;;;;;;51.75;28.50;;;3.90;99.90;;;;;;4988346;28;20113;-71
2022/11/19 07:17:27;;;;;;;52.22;27.95;;;3.90;99.90;;;;;;4986030;28;20022;-71
2022/11/19 07:19:52;;;;;;;52.67;28.20;;;3.90;99.90;;;;;;4990399;28;20026;-72
2022/11/19 07:22:18;;;;;;;52.58;28.50;;;3.90;99.90;;;;;;4990717;28;20046;-72
2022/11/19 07:24:43;;;;;;;53.58;28.85;;;3.90;99.90;;;;;;4989329;28;20054;-72
2022/11/19 07:27:09;;;;;;;54.35;28.40;;;3.90;99.90;;;;;;4990231;28;20590;-71
2022/11/19 07:29:35;;;;;;;53.30;28.15;;;3.90;99.90;;;;;;4990297;28;20026;-71
2022/11/19 07:32:01;;;;;;;52.67;28.67;;;3.90;99.90;;;;;;4989882;28;20098;-71
2022/11/19 07:34:26;;;;;;;53.78;26.90;;;3.90;99.90;;;;;;4990246;28;20401;-71
2022/11/19 07:36:52;;;;;;;54.20;28.75;;;3.90;99.90;;;;;;4989955;28;20026;-72
2022/11/19 07:39:17;;;;;;;52.72;28.58;;;3.80;99.90;;;;;;4989863;28;20057;-71
2022/11/19 07:44:27;;;;;;;54.38;27.90;;;3.80;99.90;;;;;;4990465;28;20108;-72
2022/11/19 07:46:53;;;;;;;51.63;27.58;;;3.80;99.90;;;;;;4990836;28;20027;-71
2022/11/19 07:49:19;;;;;;;52.70;28.27;;;3.80;99.90;;;;;;4990382;28;20034;-71
2022/11/19 07:51:44;;;;;;;51.50;27.90;;;3.70;99.90;;;;;;4990217;28;20030;-72
2022/11/19 07:54:11;;;;;;;54.30;28.50;;;3.70;99.90;;;;;;4989083;28;20019;-71
2022/11/19 07:56:37;;;;;;;55.47;28.40;;;3.70;99.90;;;;;;4989927;28;20030;-71
2022/11/19 07:59:03;;;;;;;52.55;28.05;;;3.70;99.90;;;;;;4988128;28;20394;-71
2022/11/19 08:01:29;;;;;;;49.65;27.38;;;3.70;99.90;;;;;;4989786;28;20018;-71
2022/11/19 08:03:54;;;;;;;50.83;27.88;;;3.70;99.90;;;;;;4990618;28;20049;-71
2022/11/19 08:06:21;;;;;;;53.72;29.30;;;3.80;99.90;;;;;;4992269;28;20622;-71
2022/11/19 08:08:47;;;;;;;51.78;28.67;;;3.70;99.90;;;;;;4992218;28;20475;-71
2022/11/19 08:11:15;;;;;;;52.97;29.25;;;3.70;99.90;;;;;;4992241;28;20032;-72
2022/11/19 08:13:40;;;;;;;57.13;28.65;;;3.70;99.90;;;;;;4991390;28;20026;-71
2022/11/19 08:16:09;;;;;;;48.72;26.67;;;3.70;99.90;;;;;;4989930;28;20034;-71
2022/11/19 08:18:35;;;;;;;50.58;27.15;;;3.70;99.90;;;;;;4992840;28;20386;-71
2022/11/19 08:21:06;;;;;;;50.05;25.98;;;3.70;99.90;;;;;;4992466;28;20022;-71
2022/11/19 08:23:33;;;;;;;50.05;28.25;;;3.70;99.90;;;;;;4993119;28;20026;-72
2022/11/19 08:25:59;;;;;;;49.90;27.38;;;3.70;99.90;;;;;;4993464;28;20049;-71
2022/11/19 08:28:25;;;;;;;49.15;27.02;;;3.60;99.90;;;;;;4993800;28;20030;-74
2022/11/19 08:30:51;;;;;;;50.58;27.58;;;3.60;99.90;;;;;;4985800;28;20035;-72
2022/11/19 08:33:17;;;;;;;45.75;26.10;;;3.60;99.90;;;;;;4994170;28;20026;-71
2022/11/19 08:35:42;;;;;;;48.95;26.95;;;3.60;99.90;;;;;;4987896;28;20034;-71
2022/11/19 08:38:09;;;;;;;48.25;26.90;;;3.60;99.90;;;;;;4985682;28;20060;-71
2022/11/19 08:40:34;;;;;;;50.28;26.45;;;3.50;99.90;;;;;;4994008;28;20049;-72
2022/11/19 08:43:00;;;;;;;49.63;26.33;;;3.60;99.90;;;;;;4993279;28;20026;-72
2022/11/19 08:45:34;;;;;;;49.97;26.55;;;3.60;99.90;;;;;;4993483;28;20030;-72
2022/11/19 08:48:02;;;;;;;47.93;26.00;;;3.60;99.90;;;;;;4993884;28;20262;-72
2022/11/19 08:50:30;;;;;;;49.38;26.90;;;3.50;99.90;;;;;;4978938;28;20467;-72
2022/11/19 08:52:57;;;;;;;47.58;26.05;;;3.60;99.90;;;;;;4993957;28;20105;-71
2022/11/19 08:55:23;;;;;;;50.75;26.20;;;3.50;99.90;;;;;;4976105;28;20038;-72
2022/11/19 08:57:49;;;;;;;50.28;26.67;;;3.50;99.90;;;;;;4980932;28;20014;-72
2022/11/19 09:00:16;;;;;;;48.60;26.13;;;3.50;99.90;;;;;;4991419;28;20034;-73
2022/11/19 09:02:41;;;;;;;47.75;25.25;;;3.60;99.90;;;;;;4992030;28;20033;-72
2022/11/19 09:05:07;;;;;;;49.42;26.52;;;3.60;99.90;;;;;;4977747;28;20456;-73
2022/11/19 09:07:33;;;;;;;47.78;26.23;;;3.60;99.90;;;;;;4990681;28;20414;-72
2022/11/19 09:09:59;;;;;;;47.97;25.70;;;3.70;99.90;;;;;;4992086;28;20037;-71
2022/11/19 09:12:24;;;;;;;44.30;24.65;;;3.70;99.90;;;;;;4992592;28;20792;-72
2022/11/19 09:14:50;;;;;;;46.15;24.88;;;3.60;99.90;;;;;;4993140;28;20065;-73
2022/11/19 09:17:15;;;;;;;47.05;25.55;;;3.70;99.90;;;;;;4991887;28;20073;-73
2022/11/19 09:19:41;;;;;;;46.78;25.83;;;3.70;99.90;;;;;;4992650;28;20033;-71
2022/11/19 09:22:07;;;;;;;46.70;25.08;;;3.70;99.90;;;;;;4993176;28;20037;-74
2022/11/19 09:24:32;;;;;;;46.05;25.15;;;3.70;99.90;;;;;;4992697;28;20502;-72
2022/11/19 09:26:58;;;;;;;45.25;24.77;;;3.80;99.90;;;;;;4992896;28;20309;-71
2022/11/19 09:29:23;;;;;;;42.92;23.77;;;3.80;99.90;;;;;;4992311;28;20122;-72
2022/11/19 09:31:49;;;;;;;44.03;24.60;;;3.80;99.90;;;;;;4992551;28;20022;-72
2022/11/19 09:34:14;;;;;;;41.88;23.27;;;3.80;99.90;;;;;;4984991;28;20101;-72
2022/11/19 09:36:40;;;;;;;42.47;23.52;;;3.80;99.90;;;;;;4987043;28;20034;-72
2022/11/19 09:39:06;;;;;;;45.67;25.33;;;3.90;99.90;;;;;;4978791;28;20041;-72
2022/11/19 09:41:37;;;;;;;43.28;24.17;;;3.90;99.90;;;;;;4981719;28;20027;-71
2022/11/19 09:44:24;;;;;;;47.78;25.30;;;3.90;99.90;;;;;;4991707;28;20130;-72
2022/11/19 09:46:53;;;;;;;42.72;23.70;;;3.90;99.90;;;;;;4992955;28;20038;-71
2022/11/19 09:49:37;;;;;;;43.80;24.20;;;3.80;99.90;;;;;;4992263;28;20023;-71
2022/11/19 09:52:12;;;;;;;41.47;23.35;;;3.80;99.90;;;;;;4992570;28;20030;-72
2022/11/19 09:54:46;;;;;;;41.35;23.35;;;3.80;99.90;;;;;;4992693;28;20415;-72
2022/11/19 09:57:19;;;;;;;41.63;22.85;;;3.80;99.90;;;;;;4992692;28;20035;-72
2022/11/19 09:59:46;;;;;;;41.33;22.83;;;3.70;99.90;;;;;;4992222;28;20027;-72
2022/11/19 10:02:20;;;;;;;43.65;22.88;;;3.70;99.90;;;;;;4991708;28;20052;-71
2022/11/19 10:04:47;;;;;;;43.08;23.23;;;3.70;99.90;;;;;;4972686;28;20057;-71
2022/11/19 10:07:19;;;;;;;42.75;23.13;;;3.80;99.90;;;;;;4985496;28;20031;-72
2022/11/19 10:09:55;;;;;;;39.05;22.30;;;3.70;99.90;;;;;;4991448;28;20378;-72
2022/11/19 10:12:36;;;;;;;41.90;23.65;;;3.80;99.90;;;;;;4979117;28;20454;-72
2022/11/19 10:15:01;;;;;;;42.42;22.92;;;3.80;99.90;;;;;;4972459;28;20025;-73
2022/11/19 10:18:04;;;;;;;39.55;22.92;;;3.70;99.90;;;;;;4985315;28;20393;-72
2022/11/19 10:20:41;;;;;;;42.20;23.23;;;3.70;99.90;;;;;;4982699;28;20075;-72
2022/11/19 10:23:22;;;;;;;43.53;23.67;;;3.70;99.90;;;;;;4977953;28;20076;-72
2022/11/19 10:25:54;;;;;;;40.25;22.42;;;3.70;99.90;;;;;;4980359;28;20315;-72
2022/11/19 10:28:24;;;;;;;39.47;22.27;;;3.70;99.90;;;;;;4976865;28;20027;-71
2022/11/19 10:30:57;;;;;;;40.45;22.45;;;3.70;99.90;;;;;;4992001;28;20185;-72
2022/11/19 10:33:46;;;;;;;36.25;21.00;;;3.70;99.90;;;;;;4991311;28;20114;-71
2022/11/19 10:36:22;;;;;;;37.97;21.90;;;3.70;99.90;;;;;;4980069;28;20064;-72
2022/11/19 10:38:56;;;;;;;38.33;21.88;;;3.70;99.90;;;;;;4991209;28;20026;-73
2022/11/19 10:41:35;;;;;;;40.63;21.85;;;3.70;99.90;;;;;;4988871;28;20034;-73
2022/11/19 10:44:36;;;;;;;37.17;21.13;;;3.70;99.90;;;;;;4990381;28;20043;-71
2022/11/19 10:47:46;;;;;;;38.28;21.50;;;3.70;99.90;;;;;;4989556;28;20038;-73
2022/11/19 10:50:21;;;;;;;37.03;20.40;;;3.60;99.90;;;;;;4991123;28;20032;-72
2022/11/19 10:53:17;;;;;;;36.72;20.73;;;3.50;99.90;;;;;;4991412;28;20023;-72
2022/11/19 10:55:48;;;;;;;;;;;3.50;99.90;;;;;;4991633;28;20100;-72
2022/11/19 10:58:24;;;;;;;34.40;19.10;;;3.50;99.90;;;;;;4991058;28;20333;-72
2022/11/19 11:00:54;;;;;;;35.55;20.63;;;3.50;99.90;;;;;;4991114;28;20038;-72
2022/11/19 11:03:30;;;;;;;42.42;22.63;;;3.50;99.90;;;;;;4990959;28;20036;-72
2022/11/19 11:06:00;;;;;;;38.75;22.48;;;3.50;99.90;;;;;;4985989;28;20386;-73
2022/11/19 11:08:26;;;;;;;39.95;22.00;;;3.60;99.90;;;;;;4983282;28;20446;-73
2022/11/19 11:10:52;;;;;;;36.92;21.13;;;3.60;99.90;;;;;;4986003;28;20311;-71
2022/11/19 11:16:45;;;;;;;39.95;21.73;;;3.70;99.90;;;;;;4990935;28;20088;-72
2022/11/19 11:19:13;;;;;;;36.28;21.45;;;3.70;99.90;;;;;;4976733;28;20115;-72
2022/11/19 11:21:42;;;;;;;36.55;20.73;;;3.70;99.90;;;;;;4981749;28;20019;-72
2022/11/19 11:24:09;;;;;;;34.42;20.20;;;3.60;99.90;;;;;;4989769;28;20242;-72
2022/11/19 11:26:36;;;;;;;37.85;20.23;;;3.60;99.90;;;;;;4973288;28;20096;-72
2022/11/19 11:29:21;;;;;;;38.03;21.17;;;3.60;99.90;;;;;;4986120;28;20019;-72
2022/11/19 11:31:47;;;;;;;38.95;21.23;;;3.60;99.90;;;;;;4980937;28;20490;-73
2022/11/19 11:34:29;;;;;;;36.55;20.55;;;3.70;99.90;;;;;;4990349;28;20100;-72
2022/11/19 11:36:56;;;;;;;33.20;20.63;;;3.70;99.90;;;;;;4986423;28;20049;-72
2022/11/19 11:39:32;;;;;;;37.50;21.33;;;3.70;99.90;;;;;;4985801;28;20165;-73
2022/11/19 11:41:59;;;;;;;39.60;22.42;;;3.70;99.90;;;;;;4989837;28;20072;-73
2022/11/19 11:44:28;;;;;;;37.05;20.75;;;3.80;99.90;;;;;;4990524;28;20489;-72
2022/11/19 11:46:56;;;;;;;36.67;21.38;;;3.80;99.90;;;;;;4976656;28;20140;-72
2022/11/19 11:49:33;;;;;;;38.92;21.63;;;3.80;99.90;;;;;;4981388;28;20039;-73
2022/11/19 11:52:31;;;;;;;38.53;21.75;;;3.80;99.90;;;;;;4988028;28;20037;-72
2022/11/19 11:55:00;;;;;;;35.20;20.30;;;3.80;99.90;;;;;;4977895;28;20033;-71
2022/11/19 11:57:35;;;;;;;37.58;21.88;;;3.80;99.90;;;;;;4990175;28;20391;-72
2022/11/19 12:00:03;;;;;;;;;;;3.80;99.90;;;;;;4991071;28;20029;-72
2022/11/19 12:02:33;;;;;;;37.22;20.60;;;3.80;99.90;;;;;;4989949;28;19921;-73
2022/11/19 12:05:02;;;;;;;36.75;21.35;;;3.90;99.90;;;;;;4990840;28;20113;-72
2022/11/19 12:07:54;;;;;;;36.92;20.23;;;3.90;99.90;;;;;;4989681;28;20081;-72
2022/11/19 12:10:29;;;;;;;36.80;21.33;;;3.90;99.90;;;;;;4990077;28;20033;-72
2022/11/19 12:13:26;;;;;;;36.85;21.10;;;4.00;99.90;;;;;;4990285;28;20089;-72
2022/11/19 12:16:20;;;;;;;34.90;20.73;;;4.00;99.90;;;;;;4987653;28;20038;-73
2022/11/19 12:18:55;;;;;;;38.63;20.77;;;4.10;99.90;;;;;;4983648;28;20426;-73
2022/11/19 12:21:32;;;;;;;35.25;20.05;;;4.10;99.90;;;;;;4989720;28;20388;-72
2022/11/19 12:24:06;;;;;;;36.72;20.95;;;4.10;99.90;;;;;;4990447;28;20038;-72
2022/11/19 12:26:50;;;;;;;35.72;20.17;;;4.10;99.90;;;;;;4990390;28;20364;-73
2022/11/19 12:29:35;;;;;;;34.30;19.85;;;4.10;99.90;;;;;;4985404;28;20041;-72
2022/11/19 12:32:21;;;;;;;33.75;20.00;;;4.10;99.90;;;;;;4989766;28;20050;-71
2022/11/19 12:35:35;;;;;;;31.10;19.05;;;4.10;99.90;;;;;;4990460;28;20494;-72
2022/11/19 12:38:12;;;;;;;32.83;19.05;;;4.20;99.90;;;;;;4919770;29;20499;-72
2022/11/19 12:40:50;;;;;;;33.40;19.52;;;4.20;99.90;;;;;;4913835;29;20151;-73
2022/11/19 12:43:27;;;;;;;34.88;18.73;;;4.20;99.90;;;;;;4901732;29;20053;-72
2022/11/19 12:46:13;;;;;;;34.10;19.05;;;4.30;99.90;;;;;;4910663;29;20056;-72
2022/11/19 12:49:02;;;;;;;32.20;18.40;;;4.40;99.90;;;;;;4909839;29;20052;-73
2022/11/19 12:51:40;;;;;;;31.67;17.98;;;4.40;99.90;;;;;;4910907;29;20079;-73
2022/11/19 12:54:29;;;;;;;31.58;17.80;;;4.30;99.90;;;;;;4910759;29;20028;-72
2022/11/19 12:57:19;;;;;;;32.40;18.35;;;4.30;99.90;;;;;;4909424;29;20123;-71
2022/11/19 13:00:09;;;;;;;29.65;17.10;;;4.40;99.90;;;;;;4905102;29;20576;-72
2022/11/19 13:02:51;;;;;;;29.45;17.20;;;4.30;99.90;;;;;;4906686;29;20044;-73
2022/11/19 13:05:26;;;;;;;28.83;16.67;;;4.30;99.90;;;;;;4900090;29;20048;-73
2022/11/19 13:08:00;;;;;;;31.85;17.15;;;4.30;99.90;;;;;;4907745;29;20040;-72
2022/11/19 13:10:37;;;;;;;29.35;17.38;;;4.30;99.90;;;;;;4913064;29;20510;-72
2022/11/19 13:13:07;;;;;;;31.60;17.08;;;4.30;99.90;;;;;;4982322;28;20033;-72